Time;durP1;ratioP1;P1;durP2;ratioP2;P2;SDS_P1;SDS_P2;PMS_P1;PMS_P2;Temp;Humidity;BMP_temperature;BMP_pressure;BME280_temperature;BME280_humidity;BME280_pressure;Samples;Min_cycle;Max_cycle;Signal;HPM_P1;HPM_P2
2023/08/16 04:18:38;;;;;;;8.48;7.03;;;;;;;19.58;100.00;101182.97;4954317;28;20051;-90
2023/08/16 04:21:04;;;;;;;9.57;8.40;;;;;;;19.56;100.00;101187.53;4915371;29;20066;-89
2023/08/16 04:23:31;;;;;;;10.32;8.52;;;;;;;19.55;100.00;101186.66;4904827;29;20047;-89
2023/08/16 04:25:58;;;;;;;10.23;7.72;;;;;;;19.65;100.00;101196.00;4886734;29;20135;-90
2023/08/16 04:28:25;;;;;;;10.18;7.78;;;;;;;19.57;100.00;101200.88;4870152;29;20054;-89
2023/08/16 04:30:52;;;;;;;7.80;6.70;;;;;;;19.53;100.00;101201.94;4901328;29;20486;-89
2023/08/16 04:33:19;;;;;;;9.45;6.57;;;;;;;19.65;100.00;101206.72;4887576;29;20051;-88
2023/08/16 04:35:46;;;;;;;7.75;6.93;;;;;;;19.60;100.00;101206.09;4906818;28;20098;-90
2023/08/16 04:38:12;;;;;;;8.02;6.75;;;;;;;19.55;100.00;101212.59;4911822;29;20055;-89
2023/08/16 04:40:39;;;;;;;9.55;7.20;;;;;;;19.53;100.00;101210.00;4888197;29;20042;-90
2023/08/16 04:43:07;;;;;;;8.43;7.20;;;;;;;19.55;100.00;101202.75;4903836;29;20466;-90
2023/08/16 04:45:35;;;;;;;9.07;6.68;;;;;;;19.61;100.00;101207.84;4888488;29;20050;-90
2023/08/16 04:48:03;;;;;;;7.07;6.32;;;;;;;19.62;100.00;101208.72;4888624;29;20048;-91
2023/08/16 04:50:30;;;;;;;7.88;6.35;;;;;;;19.64;100.00;101209.50;4872985;29;20052;-91
2023/08/16 04:52:57;;;;;;;9.65;6.30;;;;;;;19.62;100.00;101217.63;4896009;29;20055;-90
2023/08/16 04:55:23;;;;;;;10.10;6.47;;;;;;;19.64;100.00;101221.06;4888306;29;20474;-89
2023/08/16 04:57:52;;;;;;;6.90;5.78;;;;;;;19.60;100.00;101219.50;4888534;29;20096;-90
2023/08/16 05:00:19;;;;;;;7.75;6.72;;;;;;;19.56;100.00;101223.25;4888173;29;20051;-90
2023/08/16 05:02:46;;;;;;;7.78;6.43;;;;;;;19.58;100.00;101224.06;4903314;29;20040;-90
2023/08/16 05:05:13;;;;;;;7.43;6.07;;;;;;;19.56;100.00;101228.63;4887175;29;20498;-90
2023/08/16 05:07:40;;;;;;;10.52;6.32;;;;;;;19.62;100.00;101224.78;4902760;29;20044;-90
2023/08/16 05:10:07;;;;;;;7.10;6.25;;;;;;;19.61;100.00;101240.00;4903899;29;20071;-89
2023/08/16 05:12:34;;;;;;;9.95;6.75;;;;;;;19.63;100.00;101232.75;4903995;29;20052;-89
2023/08/16 05:15:01;;;;;;;8.10;7.30;;;;;;;19.67;100.00;101238.81;4904319;29;20067;-91
2023/08/16 05:17:28;;;;;;;8.00;6.70;;;;;;;19.70;100.00;101232.47;4890413;29;20044;-89
2023/08/16 05:19:54;;;;;;;7.53;6.45;;;;;;;19.76;100.00;101237.50;4907126;29;20043;-90
2023/08/16 05:22:24;;;;;;;10.10;7.95;;;;;;;19.82;100.00;101239.88;4896098;29;20040;-89
2023/08/16 05:24:51;;;;;;;10.10;7.40;;;;;;;19.89;100.00;101239.50;4885435;29;20075;-89
2023/08/16 05:27:18;;;;;;;12.20;9.05;;;;;;;19.87;100.00;101244.06;4872308;29;20055;-90
2023/08/16 05:29:46;;;;;;;8.98;6.85;;;;;;;19.93;100.00;101246.47;4868497;29;20044;-90
2023/08/16 05:32:14;;;;;;;9.77;7.43;;;;;;;20.03;100.00;101248.69;4868769;29;20044;-89
2023/08/16 05:34:41;;;;;;;9.60;7.88;;;;;;;20.03;100.00;101256.72;4884708;29;20064;-90
2023/08/16 05:37:09;;;;;;;10.30;8.25;;;;;;;20.10;100.00;101253.66;4868608;29;20482;-91
2023/08/16 05:39:36;;;;;;;9.50;8.20;;;;;;;20.13;100.00;101253.50;4868929;29;20525;-91
2023/08/16 05:42:03;;;;;;;10.38;8.27;;;;;;;20.08;100.00;101254.66;4899381;29;20040;-91
2023/08/16 05:44:30;;;;;;;10.80;8.20;;;;;;;20.10;100.00;101256.34;4879710;29;20051;-90
2023/08/16 05:46:57;;;;;;;10.15;7.05;;;;;;;20.09;100.00;101257.25;4902307;29;20486;-91
2023/08/16 05:49:24;;;;;;;8.80;7.63;;;;;;;20.26;100.00;101259.09;4883490;29;20064;-90
2023/08/16 06:48:52;;;;;;;5.40;3.55;;;;;;;21.42;100.00;101293.22;4821176;29;20081;-90
2023/08/16 07:06:34;;;;;;;3.67;3.30;;;;;;;21.43;100.00;101304.84;4724524;30;20096;-90
2023/08/16 07:09:31;;;;;;;4.38;3.97;;;;;;;21.61;100.00;101301.16;4841677;29;20206;-91
2023/08/16 07:11:58;;;;;;;6.30;3.65;;;;;;;21.96;100.00;101300.94;4826681;29;20038;-89
2023/08/16 07:14:25;;;;;;;4.05;3.25;;;;;;;22.12;100.00;101307.22;4811788;29;20041;-90
2023/08/16 07:16:52;;;;;;;4.65;3.50;;;;;;;22.19;100.00;101306.75;4866994;29;20147;-90
2023/08/16 07:19:20;;;;;;;3.97;3.30;;;;;;;22.23;100.00;101312.81;4868167;29;20521;-91
2023/08/16 07:21:48;;;;;;;4.70;3.63;;;;;;;22.52;100.00;101316.47;4867877;29;20405;-92
2023/08/16 07:24:15;;;;;;;4.80;3.35;;;;;;;22.82;100.00;101323.66;4868901;29;20048;-91
2023/08/16 07:26:41;;;;;;;6.32;3.65;;;;;;;22.99;100.00;101321.69;4868011;29;20048;-91
2023/08/16 07:29:08;;;;;;;3.20;2.70;;;;;;;23.22;100.00;101319.41;4868014;29;20611;-90
2023/08/16 07:31:36;;;;;;;3.80;3.45;;;;;;;23.66;100.00;101329.22;4867964;29;20044;-91
2023/08/16 07:34:03;;;;;;;5.53;3.33;;;;;;;23.99;100.00;101312.66;4899157;29;20059;-90
2023/08/16 07:36:33;;;;;;;3.65;3.10;;;;;;;24.18;100.00;101315.00;4882429;29;20059;-91
2023/08/16 07:39:00;;;;;;;5.03;3.53;;;;;;;24.27;100.00;101325.16;4889632;29;20080;-90
2023/08/16 07:41:28;;;;;;;6.25;3.50;;;;;;;23.95;100.00;101324.63;4906625;29;20042;-91
2023/08/16 07:43:55;;;;;;;4.80;3.10;;;;;;;23.51;100.00;101325.63;4890620;29;20490;-90
2023/08/16 07:46:23;;;;;;;4.97;3.10;;;;;;;23.76;100.00;101338.44;4890873;29;20043;-90
2023/08/16 07:48:50;;;;;;;3.60;3.30;;;;;;;23.87;100.00;101331.38;4891041;29;20142;-90
2023/08/16 07:51:17;;;;;;;3.25;2.90;;;;;;;24.03;100.00;101336.63;4906505;29;20103;-91
2023/08/16 07:53:44;;;;;;;5.75;3.17;;;;;;;24.25;96.42;101337.91;4895022;29;20043;-91
2023/08/16 07:56:11;;;;;;;3.47;2.92;;;;;;;24.63;95.05;101335.34;4897932;29;20047;-89
2023/08/16 07:58:38;;;;;;;5.05;3.13;;;;;;;24.83;97.76;101333.97;4919963;29;20458;-91
2023/08/16 08:01:05;;;;;;;3.20;2.90;;;;;;;24.80;98.09;101337.75;4906871;29;20142;-90
2023/08/16 08:03:32;;;;;;;3.35;3.03;;;;;;;24.98;100.00;101327.50;4924252;29;20048;-91
2023/08/16 08:06:01;;;;;;;2.72;2.42;;;;;;;25.19;97.48;101334.13;4906799;29;20156;-91
2023/08/16 08:08:28;;;;;;;3.55;3.00;;;;;;;25.22;86.88;101338.44;4916301;29;20086;-91
2023/08/16 08:10:55;;;;;;;4.05;2.85;;;;;;;25.23;91.48;101354.56;4895075;29;20071;-92
2023/08/16 08:13:23;;;;;;;4.00;2.60;;;;;;;25.21;90.91;101351.09;4915116;29;20048;-92
2023/08/16 08:15:50;;;;;;;3.80;2.97;;;;;;;25.21;92.11;101351.09;4900774;29;20116;-91
2023/08/16 08:18:17;;;;;;;2.92;2.60;;;;;;;25.31;88.75;101356.75;4904470;29;20063;-93
2023/08/16 08:20:44;;;;;;;2.50;2.30;;;;;;;25.30;86.10;101349.56;4900498;29;20043;-91
2023/08/16 08:23:11;;;;;;;4.00;2.60;;;;;;;25.20;81.94;101343.97;4921173;29;20054;-89
2023/08/16 08:25:42;;;;;;;5.03;2.75;;;;;;;25.25;87.38;101346.34;4918591;29;20044;-90
2023/08/16 08:28:10;;;;;;;3.55;2.75;;;;;;;25.18;85.99;101348.63;4926509;29;20055;-90
2023/08/16 08:30:37;;;;;;;2.42;2.22;;;;;;;25.02;82.40;101347.94;4941419;29;20048;-90
2023/08/16 08:33:04;;;;;;;3.17;2.40;;;;;;;25.13;82.40;101348.06;4910588;29;20111;-90
2023/08/16 08:35:33;;;;;;;4.47;2.65;;;;;;;24.98;84.17;101341.03;4927635;29;20059;-88
2023/08/16 08:38:00;;;;;;;2.75;2.30;;;;;;;25.16;86.57;101344.31;4911947;29;20067;-88
2023/08/16 08:40:31;;;;;;;3.13;2.53;;;;;;;25.26;86.89;101346.25;4927339;29;20070;-88
2023/08/16 08:42:58;;;;;;;3.15;2.70;;;;;;;25.39;86.20;101351.66;4911190;29;20031;-90
2023/08/16 08:45:27;;;;;;;3.53;2.90;;;;;;;25.39;79.56;101356.16;4927975;29;20056;-89
2023/08/16 08:47:56;;;;;;;3.38;2.60;;;;;;;25.39;80.04;101351.66;4926750;29;20040;-91
2023/08/16 08:50:23;;;;;;;4.07;2.50;;;;;;;25.45;81.45;101356.59;4912216;29;20056;-89
2023/08/16 08:52:51;;;;;;;3.50;2.90;;;;;;;25.59;83.04;101355.63;4912169;29;20027;-89
2023/08/16 08:55:19;;;;;;;4.05;2.92;;;;;;;25.66;82.05;101351.50;4926474;29;20050;-87
2023/08/16 08:57:51;;;;;;;4.55;3.15;;;;;;;25.63;82.01;101353.53;4912384;29;20115;-90
2023/08/16 09:00:19;;;;;;;3.35;3.03;;;;;;;25.76;79.05;101355.28;4928002;29;20340;-89
2023/08/16 09:02:49;;;;;;;3.63;3.03;;;;;;;25.93;79.46;101353.19;4911179;29;20131;-89
2023/08/16 09:05:18;;;;;;;3.45;2.60;;;;;;;26.19;86.18;101353.94;4928453;29;20046;-89
2023/08/16 09:07:46;;;;;;;3.00;2.75;;;;;;;26.35;80.98;101358.09;4912670;29;20044;-90
2023/08/16 09:10:13;;;;;;;3.20;2.90;;;;;;;26.45;75.43;101363.69;4911851;29;20107;-90
2023/08/16 09:12:40;;;;;;;3.85;2.38;;;;;;;26.00;73.88;101351.75;4911648;29;20533;-91
2023/08/16 09:15:08;;;;;;;5.70;3.03;;;;;;;26.02;76.75;101355.19;4908769;29;20047;-89
2023/08/16 09:17:35;;;;;;;4.75;3.15;;;;;;;26.36;72.40;101359.81;4911238;29;20047;-89
2023/08/16 09:20:08;;;;;;;4.50;2.90;;;;;;;26.68;77.69;101356.53;4912258;29;20040;-90
2023/08/16 09:22:35;;;;;;;5.72;2.88;;;;;;;26.92;73.07;101351.91;4912650;29;20035;-90
2023/08/16 09:25:03;;;;;;;3.05;2.75;;;;;;;27.17;73.82;101339.16;4911824;29;20207;-90
2023/08/16 09:27:33;;;;;;;3.67;3.08;;;;;;;27.32;71.66;101351.47;4912341;29;20059;-92
2023/08/16 09:30:01;;;;;;;4.28;3.38;;;;;;;26.07;68.52;101347.63;4912371;29;20068;-90
2023/08/16 09:32:30;;;;;;;5.13;2.80;;;;;;;26.10;71.86;101344.66;4912096;29;20047;-91
2023/08/16 09:34:59;;;;;;;3.45;2.75;;;;;;;26.96;71.13;101344.38;4910646;29;20043;-90
2023/08/16 09:37:31;;;;;;;3.78;2.90;;;;;;;27.30;71.92;101342.59;4909041;29;20039;-88
2023/08/16 09:39:59;;;;;;;3.00;2.70;;;;;;;27.52;66.88;101341.75;4924402;29;20036;-90
2023/08/16 09:42:32;;;;;;;5.43;3.53;;;;;;;27.41;64.73;101349.88;4909516;29;20039;-90
2023/08/16 09:45:00;;;;;;;3.67;2.70;;;;;;;27.61;67.93;101351.88;4911282;29;20059;-91
2023/08/16 09:47:30;;;;;;;3.05;2.72;;;;;;;27.86;70.85;101344.47;4909916;29;20119;-91
2023/08/16 09:50:05;;;;;;;3.67;3.30;;;;;;;27.93;66.63;101338.41;4924324;29;20125;-92
2023/08/16 09:52:34;;;;;;;3.80;3.10;;;;;;;27.80;63.90;101347.69;4910377;29;20031;-90
2023/08/16 09:55:02;;;;;;;3.92;3.10;;;;;;;27.98;62.43;101343.44;4910258;29;20066;-89
2023/08/16 09:57:32;;;;;;;3.05;2.75;;;;;;;28.07;66.47;101341.81;4925857;29;20047;-91
2023/08/16 10:00:00;;;;;;;2.90;2.65;;;;;;;27.63;64.17;101343.59;4911064;29;20095;-91
2023/08/16 10:02:27;;;;;;;3.88;3.28;;;;;;;27.40;67.57;101345.44;4911340;29;20050;-88
2023/08/16 10:04:57;;;;;;;3.53;3.08;;;;;;;27.61;66.86;101349.16;4912229;29;20086;-88
2023/08/16 10:07:26;;;;;;;3.50;3.15;;;;;;;27.64;62.04;101348.03;4911512;29;20039;-89
2023/08/16 10:09:53;;;;;;;3.20;2.90;;;;;;;27.82;60.16;101342.97;4910434;29;20035;-92
2023/08/16 10:12:20;;;;;;;3.90;2.75;;;;;;;27.96;61.15;101351.72;4911970;29;20024;-88
2023/08/16 10:14:51;;;;;;;3.42;3.13;;;;;;;27.84;61.32;101352.75;4913076;29;20072;-90
2023/08/16 10:17:19;;;;;;;3.38;3.08;;;;;;;28.09;60.56;101350.72;4911966;29;20044;-89
2023/08/16 10:19:49;;;;;;;3.75;3.45;;;;;;;28.07;56.98;101348.09;4927039;29;20107;-89
2023/08/16 10:22:21;;;;;;;5.25;3.85;;;;;;;28.29;59.23;101347.22;4911594;29;20075;-88
2023/08/16 10:24:53;;;;;;;4.05;3.40;;;;;;;28.35;56.40;101329.53;4912193;28;20104;-91
2023/08/16 10:27:21;;;;;;;3.80;3.15;;;;;;;28.48;57.37;101333.78;4911442;29;20023;-88
2023/08/16 10:29:51;;;;;;;4.00;3.60;;;;;;;28.49;59.96;101327.34;4911671;29;20028;-87
2023/08/16 10:32:19;;;;;;;3.85;3.50;;;;;;;28.50;59.27;101334.53;4911327;29;20028;-88
2023/08/16 10:34:46;;;;;;;4.50;3.67;;;;;;;28.54;57.48;101330.53;4911446;29;20032;-88
2023/08/16 10:37:13;;;;;;;3.67;3.33;;;;;;;28.55;55.73;101329.56;4911320;29;20027;-88
2023/08/16 10:39:48;;;;;;;3.60;3.13;;;;;;;28.66;58.31;101331.34;4911589;28;20046;-87
2023/08/16 10:42:36;;;;;;;3.92;3.33;;;;;;;28.68;55.44;101318.50;4916561;28;20065;-88
2023/08/16 10:45:03;;;;;;;3.88;3.28;;;;;;;28.57;54.96;101322.13;4910560;28;20589;-87
2023/08/16 10:47:30;;;;;;;4.03;2.90;;;;;;;28.48;61.44;101322.91;4907942;29;20055;-89
2023/08/16 10:50:01;;;;;;;5.05;3.47;;;;;;;28.48;58.28;101316.59;4923304;29;20036;-88
2023/08/16 10:52:28;;;;;;;3.25;2.63;;;;;;;28.47;59.74;101314.88;4907712;29;20068;-88
2023/08/16 10:54:56;;;;;;;4.88;3.00;;;;;;;28.40;61.08;101310.97;4908071;29;20044;-90
2023/08/16 10:57:25;;;;;;;3.97;3.20;;;;;;;27.89;60.49;101323.34;4907926;29;20044;-87
